createdAt,value
2018-01-25T06:16:43.871Z,44.42
2018-01-25T06:19:10.281Z,41.90
2018-01-25T06:21:37.208Z,40.22
2018-01-25T06:24:04.144Z,41.47
2018-01-25T06:26:31.171Z,38.00
2018-01-25T06:28:57.548Z,38.42
2018-01-25T06:31:24.268Z,37.58
2018-01-25T06:33:51.088Z,40.95
2018-01-25T06:36:17.682Z,39.20
2018-01-25T06:38:44.176Z,40.75
2018-01-25T06:41:10.576Z,38.65
2018-01-25T06:43:37.240Z,54.00
2018-01-25T06:46:03.773Z,53.22
2018-01-25T06:48:30.632Z,58.95
2018-01-25T06:50:57.096Z,58.33
2018-01-25T06:53:23.632Z,57.33
2018-01-25T06:55:50.225Z,60.10
2018-01-25T06:58:16.728Z,63.22
2018-01-25T07:00:43.292Z,76.05
2018-01-25T07:03:10.156Z,81.70
2018-01-25T07:05:36.600Z,71.18
2018-01-25T07:08:03.241Z,68.12
2018-01-25T07:10:29.699Z,73.90
2018-01-25T07:12:56.248Z,75.22
2018-01-25T07:15:22.878Z,75.30
2018-01-25T07:17:49.304Z,74.95
2018-01-25T07:20:15.855Z,74.93
2018-01-25T07:22:42.360Z,76.28
2018-01-25T07:25:08.951Z,78.60
2018-01-25T07:27:35.521Z,86.40
2018-01-25T07:30:01.968Z,89.50
2018-01-25T07:32:28.917Z,120.53
2018-01-25T07:34:55.357Z,146.02
2018-01-25T07:37:21.975Z,139.95
2018-01-25T07:39:48.440Z,119.40
2018-01-25T07:42:14.836Z,119.87
2018-01-25T07:44:41.517Z,125.87
2018-01-25T07:47:08.035Z,154.07
2018-01-25T07:49:34.652Z,136.32
2018-01-25T07:52:01.185Z,132.23
2018-01-25T07:54:27.638Z,129.00
2018-01-25T07:56:54.237Z,124.18
2018-01-25T07:59:20.704Z,116.85
2018-01-25T08:01:47.333Z,110.55
2018-01-25T08:04:14.552Z,106.85
2018-01-25T08:06:41.578Z,107.18
2018-01-25T08:09:08.921Z,110.70
2018-01-25T08:11:35.531Z,107.32
2018-01-25T08:14:02.127Z,106.75
2018-01-25T08:16:34.625Z,105.70
2018-01-25T08:19:02.130Z,109.82
2018-01-25T08:21:29.020Z,110.75
2018-01-25T08:23:55.566Z,108.12
2018-01-25T08:26:22.188Z,104.15
2018-01-25T08:28:48.658Z,104.35
2018-01-25T08:31:15.482Z,99.97
2018-01-25T08:33:42.101Z,96.97
2018-01-25T08:36:09.839Z,94.32
2018-01-25T08:38:36.640Z,93.75
2018-01-25T08:41:04.091Z,99.05
2018-01-25T08:43:30.988Z,98.80
2018-01-25T08:45:57.500Z,94.72
2018-01-25T08:48:24.344Z,97.35
2018-01-25T08:50:50.825Z,100.53
2018-01-25T08:53:17.392Z,100.05
2018-01-25T08:55:43.990Z,101.62
2018-01-25T08:58:11.056Z,105.80
2018-01-25T09:00:37.926Z,104.00
2018-01-25T09:03:04.496Z,109.45
2018-01-25T09:05:31.024Z,106.05
2018-01-25T09:07:57.653Z,106.00
2018-01-25T09:10:24.420Z,105.28
2018-01-25T09:12:50.990Z,107.12
2018-01-25T09:15:17.446Z,108.70
2018-01-25T09:17:43.968Z,103.45
2018-01-25T09:20:10.633Z,106.50
2018-01-25T09:22:37.336Z,104.22
2018-01-25T09:25:04.175Z,98.78
2018-01-25T09:27:30.669Z,96.53
2018-01-25T09:29:57.265Z,93.72
2018-01-25T09:32:23.843Z,95.43
2018-01-25T09:34:50.308Z,91.68
2018-01-25T09:37:16.704Z,94.53
2018-01-25T09:39:43.494Z,101.87
2018-01-25T09:42:09.977Z,103.75
2018-01-25T09:44:36.589Z,103.00
2018-01-25T09:47:03.361Z,103.05
2018-01-25T09:49:29.897Z,103.18
2018-01-25T09:51:56.380Z,103.53
2018-01-25T09:54:23.012Z,98.35
2018-01-25T09:56:49.517Z,99.07
2018-01-25T09:59:16.040Z,98.37
2018-01-25T10:01:42.962Z,98.53
2018-01-25T10:04:09.849Z,102.68
2018-01-25T10:06:36.631Z,103.03
2018-01-25T10:09:03.960Z,102.68
2018-01-25T10:11:30.552Z,100.50
2018-01-25T10:13:56.992Z,100.95
2018-01-25T10:16:23.881Z,106.72
2018-01-25T10:18:50.423Z,98.55
2018-01-25T10:21:17.021Z,106.05
2018-01-25T10:23:43.433Z,99.60
2018-01-25T10:26:09.997Z,102.38
2018-01-25T10:28:36.565Z,99.18
2018-01-25T10:31:03.412Z,95.75
2018-01-25T10:33:29.971Z,95.38
2018-01-25T10:35:56.455Z,91.37
2018-01-25T10:38:23.370Z,90.85
2018-01-25T10:40:49.840Z,91.72
2018-01-25T10:43:16.370Z,101.12
2018-01-25T10:45:42.916Z,96.97
2018-01-25T10:48:09.756Z,93.45
2018-01-25T10:50:36.274Z,93.40
2018-01-25T10:53:02.827Z,89.55
2018-01-25T10:55:29.493Z,87.32
2018-01-25T10:57:56.237Z,84.85
2018-01-25T11:00:22.667Z,87.55
2018-01-25T11:02:49.368Z,85.75
2018-01-25T11:05:15.780Z,82.88
2018-01-25T11:07:42.316Z,85.03
2018-01-25T11:10:08.912Z,86.05
2018-01-25T11:12:35.392Z,80.95
2018-01-25T11:15:01.953Z,81.20
2018-01-25T11:17:28.551Z,82.00
2018-01-25T11:19:54.984Z,85.95
2018-01-25T11:22:21.972Z,80.05
2018-01-25T11:24:48.996Z,78.55
2018-01-25T11:27:16.448Z,79.12
2018-01-25T11:29:43.036Z,80.53
2018-01-25T11:32:09.528Z,71.55
2018-01-25T11:34:36.109Z,74.20
2018-01-25T11:37:02.966Z,66.05
2018-01-25T11:39:29.434Z,62.83
2018-01-25T11:41:55.983Z,55.92
2018-01-25T11:44:22.564Z,53.10
2018-01-25T11:46:49.092Z,53.30
2018-01-25T11:49:15.670Z,52.45
2018-01-25T11:51:42.091Z,51.42
2018-01-25T11:54:08.704Z,50.20
2018-01-25T11:56:35.227Z,49.83
2018-01-25T11:59:01.791Z,47.15
2018-01-25T12:01:30.011Z,50.90
2018-01-25T12:03:56.689Z,45.67
2018-01-25T12:06:23.542Z,47.85
2018-01-25T12:08:50.016Z,45.58
2018-01-25T12:11:16.701Z,43.63
2018-01-25T12:13:43.671Z,42.75
2018-01-25T12:16:10.291Z,39.75
2018-01-25T12:18:36.786Z,37.95
2018-01-25T12:21:03.271Z,39.17
2018-01-25T12:23:29.942Z,37.60
2018-01-25T12:25:56.356Z,38.17
2018-01-25T12:28:23.536Z,43.13
2018-01-25T12:30:50.424Z,40.38
2018-01-25T12:33:16.880Z,42.25
2018-01-25T12:35:43.460Z,46.15
2018-01-25T12:38:10.024Z,68.05
2018-01-25T12:40:36.478Z,73.75
2018-01-25T12:43:02.899Z,69.40
2018-01-25T12:45:29.877Z,66.85
2018-01-25T12:47:56.760Z,72.10
2018-01-25T12:50:23.248Z,71.87
2018-01-25T12:52:49.808Z,69.78
2018-01-25T12:55:16.332Z,76.25
2018-01-25T12:57:42.847Z,74.03
2018-01-25T13:00:09.468Z,71.78
2018-01-25T13:02:37.536Z,73.05
2018-01-25T13:05:04.388Z,73.53
2018-01-25T13:07:30.904Z,70.60
2018-01-25T13:09:57.693Z,71.72
2018-01-25T13:12:24.244Z,70.80
2018-01-25T13:14:51.087Z,71.18
2018-01-25T13:17:17.956Z,75.18
2018-01-25T13:19:44.775Z,71.15
2018-01-25T13:22:11.344Z,72.20
2018-01-25T13:24:37.941Z,73.53
2018-01-25T13:27:04.372Z,73.05
2018-01-25T13:29:30.762Z,70.15
2018-01-25T13:31:57.432Z,71.87
2018-01-25T13:34:23.969Z,73.80
2018-01-25T13:36:51.140Z,72.62
2018-01-25T13:39:17.544Z,73.53
2018-01-25T13:41:44.260Z,73.15
2018-01-25T13:44:10.785Z,74.55
2018-01-25T13:46:37.608Z,73.03
2018-01-25T13:49:04.706Z,77.32
2018-01-25T13:51:31.249Z,73.93
2018-01-25T13:53:59.101Z,76.97
2018-01-25T13:56:25.564Z,78.78
2018-01-25T13:58:53.022Z,73.78
2018-01-25T14:01:19.940Z,74.80
2018-01-25T14:03:47.231Z,69.53
2018-01-25T14:06:13.833Z,72.32
2018-01-25T14:08:40.363Z,72.15
2018-01-25T14:11:07.232Z,69.68
2018-01-25T14:13:33.776Z,66.20
2018-01-25T14:16:00.287Z,62.75
2018-01-25T14:18:26.910Z,64.90
2018-01-25T14:20:54.337Z,65.10
2018-01-25T14:23:21.140Z,68.20
2018-01-25T14:25:47.652Z,60.25
2018-01-25T14:28:14.251Z,60.03
2018-01-25T14:30:40.732Z,60.12
2018-01-25T14:33:07.569Z,61.17
2018-01-25T14:35:33.950Z,57.65
2018-01-25T14:38:01.300Z,58.50
2018-01-25T14:40:27.812Z,56.28
2018-01-25T14:42:54.347Z,53.70
2018-01-25T14:45:20.989Z,54.03
2018-01-25T14:47:47.747Z,55.30
2018-01-25T14:50:14.259Z,53.70
2018-01-25T14:52:41.111Z,54.67
2018-01-25T14:55:07.647Z,49.67
2018-01-25T14:57:34.139Z,54.50
2018-01-25T15:00:01.003Z,53.00
2018-01-25T15:02:27.539Z,51.05
2018-01-25T15:04:54.076Z,55.33
2018-01-25T15:07:20.589Z,56.53
2018-01-25T15:09:48.051Z,58.03
2018-01-25T15:12:14.976Z,54.53
2018-01-25T15:14:41.500Z,56.37
2018-01-25T15:17:08.017Z,59.03
2018-01-25T15:19:34.573Z,57.47
2018-01-25T15:22:01.029Z,56.17
2018-01-25T15:24:27.592Z,54.67
2018-01-25T15:26:54.104Z,53.22
2018-01-25T15:29:20.516Z,53.35
2018-01-25T15:31:47.293Z,52.75
2018-01-25T15:34:13.768Z,53.45
2018-01-25T15:36:40.341Z,55.45
2018-01-25T15:39:06.836Z,55.67
2018-01-25T15:41:33.708Z,60.12
2018-01-25T15:44:00.888Z,61.67
2018-01-25T15:46:27.990Z,66.00
2018-01-25T15:48:54.493Z,63.35
2018-01-25T15:51:20.993Z,63.60
2018-01-25T15:53:47.588Z,63.72
2018-01-25T15:56:14.068Z,67.57
2018-01-25T15:58:40.611Z,65.37
2018-01-25T16:01:07.152Z,68.05
2018-01-25T16:03:33.740Z,63.83
2018-01-25T16:06:00.308Z,66.12
2018-01-25T16:08:26.769Z,67.80
2018-01-25T16:10:53.611Z,66.68
2018-01-25T16:13:20.128Z,72.20
2018-01-25T16:15:46.643Z,68.25
2018-01-25T16:18:17.040Z,71.78
2018-01-25T16:20:44.916Z,70.90
2018-01-25T16:23:11.600Z,68.70
2018-01-25T16:25:38.021Z,70.00
2018-01-25T16:28:04.404Z,66.15
2018-01-25T16:30:31.422Z,65.05
2018-01-25T16:32:57.942Z,65.40
2018-01-25T16:35:24.472Z,68.45
2018-01-25T16:37:50.869Z,69.78
2018-01-25T16:40:17.604Z,68.95
2018-01-25T16:42:44.019Z,67.45
2018-01-25T16:45:11.572Z,65.93
2018-01-25T16:47:38.060Z,67.18
2018-01-25T16:50:04.630Z,66.18
2018-01-25T16:52:31.136Z,66.80
2018-01-25T16:54:58.668Z,63.60
2018-01-25T16:57:25.163Z,63.00
2018-01-25T16:59:51.717Z,62.97
2018-01-25T17:02:18.188Z,70.25
2018-01-25T17:04:44.789Z,71.53
2018-01-25T17:07:11.345Z,68.53
2018-01-25T17:09:38.408Z,68.87
2018-01-25T17:12:04.957Z,63.38
2018-01-25T17:14:32.481Z,68.37
2018-01-25T17:16:59.048Z,65.72
2018-01-25T17:19:25.540Z,65.20
2018-01-25T17:21:52.088Z,68.10
2018-01-25T17:24:18.567Z,67.32
2018-01-25T17:26:45.076Z,70.20
2018-01-25T17:29:11.663Z,69.50
2018-01-25T17:31:38.235Z,64.85
2018-01-25T17:34:04.680Z,64.57
2018-01-25T17:36:31.232Z,70.68
2018-01-25T17:38:57.748Z,68.43
2018-01-25T17:41:24.320Z,69.57
2018-01-25T17:43:50.881Z,62.10
2018-01-25T17:46:17.404Z,63.75
2018-01-25T17:48:44.251Z,70.78
2018-01-25T17:51:10.734Z,71.25
2018-01-25T17:53:37.277Z,74.28
2018-01-25T17:56:03.832Z,81.25
2018-01-25T17:58:30.641Z,86.63
2018-01-25T18:00:57.061Z,84.85
2018-01-25T18:03:23.849Z,84.72
2018-01-25T18:05:50.577Z,94.30
2018-01-25T18:08:17.408Z,122.60
2018-01-25T18:10:43.939Z,118.57
2018-01-25T18:13:10.552Z,115.75
2018-01-25T18:15:37.040Z,112.35
2018-01-25T18:18:03.474Z,111.68
2018-01-25T18:20:30.112Z,109.12
2018-01-25T18:22:56.935Z,100.75
2018-01-25T18:25:23.448Z,105.97
2018-01-25T18:27:50.064Z,105.32
2018-01-25T18:30:16.512Z,96.20
2018-01-25T18:32:43.099Z,95.30
2018-01-25T18:35:09.604Z,88.30
2018-01-25T18:37:36.188Z,85.68
2018-01-25T18:40:02.721Z,86.45
2018-01-25T18:42:29.213Z,84.85
2018-01-25T18:44:56.519Z,78.78
2018-01-25T18:47:23.523Z,80.60
2018-01-25T18:49:50.040Z,80.32
2018-01-25T18:52:16.898Z,80.35
2018-01-25T18:54:43.468Z,79.60
2018-01-25T18:57:09.995Z,75.20
2018-01-25T18:59:36.847Z,75.10
2018-01-25T19:02:03.671Z,78.18
2018-01-25T19:04:30.461Z,79.15
2018-01-25T19:06:57.073Z,80.80
2018-01-25T19:09:23.580Z,81.10
2018-01-25T19:11:50.128Z,79.50
2018-01-25T19:14:16.677Z,81.95
2018-01-25T19:16:43.169Z,81.03
2018-01-25T19:19:09.704Z,81.18
2018-01-25T19:21:36.212Z,90.85
2018-01-25T19:24:03.006Z,93.47
2018-01-25T19:26:29.649Z,86.75
2018-01-25T19:28:56.167Z,86.65
2018-01-25T19:31:22.716Z,92.25
2018-01-25T19:33:49.164Z,104.50
2018-01-25T19:36:16.108Z,116.95
2018-01-25T19:38:42.531Z,124.68
2018-01-25T19:41:09.112Z,120.05
2018-01-25T19:43:35.700Z,119.20
2018-01-25T19:46:02.505Z,121.05
2018-01-25T19:48:29.934Z,121.78
2018-01-25T19:50:56.551Z,120.65
2018-01-25T19:53:23.073Z,122.45
2018-01-25T19:55:49.559Z,120.95
2018-01-25T19:58:16.100Z,128.12
2018-01-25T20:00:42.610Z,136.98
2018-01-25T20:03:09.220Z,136.73
2018-01-25T20:05:35.726Z,148.40
2018-01-25T20:08:02.331Z,150.57
2018-01-25T20:10:28.813Z,159.48
2018-01-25T20:12:55.291Z,164.25
2018-01-25T20:15:21.884Z,170.10
2018-01-25T20:17:50.510Z,168.77
2018-01-25T20:20:16.983Z,162.85
2018-01-25T20:22:43.660Z,167.52
2018-01-25T20:25:10.159Z,160.70
2018-01-25T20:27:36.721Z,167.23
2018-01-25T20:30:03.146Z,184.13
2018-01-25T20:32:30.979Z,180.70
2018-01-25T20:34:58.288Z,223.45
2018-01-25T20:37:25.031Z,250.40
2018-01-25T20:39:51.476Z,297.92
2018-01-25T20:42:18.440Z,311.25
2018-01-25T20:44:44.867Z,331.40
2018-01-25T20:47:11.474Z,325.87
2018-01-25T20:49:37.967Z,314.98
2018-01-25T20:52:04.774Z,319.25
2018-01-25T20:54:31.377Z,310.90
2018-01-25T20:56:58.152Z,302.15
2018-01-25T20:59:24.798Z,293.25
2018-01-25T21:01:51.227Z,293.52
2018-01-25T21:04:18.053Z,278.45
2018-01-25T21:06:44.633Z,266.60
2018-01-25T21:09:11.119Z,263.67
2018-01-25T21:11:38.676Z,263.85
2018-01-25T21:14:05.162Z,262.80
